Impacts TAF Board INFO
FOR SITUATIONAL AWARENESS. NOT TO BE USED FOR FLIGHT PLANNING PURPOSES.
IDs:

KPDX - Portland Intl Arpt, OR, US

Issued at 0527 UTC 22 Jan 2018
Updated at 0555 UTC 22 Jan 2018
Potential Impact None Slight Moderate High
Time0553Z 22/06Z 22/07Z 22/08Z 22/09Z 22/10Z 22/11Z 22/12Z 22/13Z 22/14Z 22/15Z 22/16Z 22/17Z 22/18Z>>
Type OBS PRVL PRVL PRVL PRVL PRVL PRVL PRVL PRVL PRVL PRVL PRVL PRVL PRVL
VIS 10 >6 >6 >6 >6 >6 >6 >6 >6 >6 >6 >6 >6 >6
CIG 80 120 120 120 120 120 120 120 30 30 30 50 50 50
Cover BKN OVC OVC OVC OVC OVC OVC OVC OVC OVC OVC BKN BKN BKN
FltCat VFR VFR VFR VFR VFR VFR VFR VFR MVFR MVFR MVFR VFR VFR VFR
WX -- VCSH VCSH VCSH VCSH VCSH VCSH VCSH -SHRA -SHRA -SHRA VCSH VCSH VCSH
WDir 140 130 130 130 130 130 130 130 190 190 190 200 200 200
WSpd 6 6 6 6 6 6 6 6 6 6 6 6 6 6
WGst -- -- -- -- -- -- -- -- -- -- -- -- -- --

Raw TAF
KPDX 220527Z 2206/2306 13006KT P6SM VCSH SCT050 OVC120
  FM221300 19006KT P6SM -SHRA OVC030
  FM221600 20006KT P6SM VCSH BKN050
  FM230000 15004KT P6SM OVC050


Raw METAR
KPDX 220553Z 14006KT 10SM SCT045 BKN080 07/04 A3010 RMK AO2 SLP193 60000 T00720044 10094 20056 51016
KPDX 220453Z 13006KT 10SM FEW060 SCT090 BKN230 07/04 A3009 RMK AO2 SLP188 T00670044
KPDX 220353Z 11006KT 10SM FEW022 SCT032 SCT230 06/04 A3008 RMK AO2 SLP183 T00610044
KPDX 220253Z 19010KT 10SM FEW020 SCT060 BKN220 08/05 A3006 RMK AO2 SLP177 60000 T00780050 53019

METAR Board
Radar Display
Forecast Discussion

FOR SITUATIONAL AWARENESS. NOT TO BE USED FOR FLIGHT PLANNING PURPOSES.